createdAt,value
2023-03-19T00:04:09.064Z,8.27
2023-03-19T00:08:26.323Z,9.95
2023-03-19T00:12:43.423Z,9.40
2023-03-19T00:17:01.244Z,9.95
2023-03-19T00:21:18.424Z,9.83
2023-03-19T00:25:36.194Z,8.55
2023-03-19T00:29:53.278Z,9.27
2023-03-19T00:34:11.593Z,9.45
2023-03-19T00:38:29.238Z,9.27
2023-03-19T00:42:46.704Z,10.07
2023-03-19T00:47:03.905Z,7.03
2023-03-19T00:51:23.102Z,7.78
2023-03-19T00:55:40.966Z,8.23
2023-03-19T00:59:58.059Z,8.20
2023-03-19T01:04:15.353Z,7.95
2023-03-19T01:08:32.529Z,7.95
2023-03-19T01:12:50.859Z,8.55
2023-03-19T01:17:08.083Z,8.80
2023-03-19T01:21:25.208Z,9.43
2023-03-19T01:25:42.551Z,8.40
2023-03-19T01:29:59.694Z,8.57
2023-03-19T01:34:17.000Z,8.55
2023-03-19T01:38:34.225Z,8.63
2023-03-19T01:43:13.704Z,8.30
2023-03-19T01:47:38.212Z,7.53
2023-03-19T01:51:55.747Z,7.53
2023-03-19T01:56:17.601Z,8.02
2023-03-19T02:00:35.896Z,7.55
2023-03-19T02:05:00.604Z,7.95
2023-03-19T02:09:18.906Z,8.40
2023-03-19T02:13:36.632Z,9.02
2023-03-19T02:17:54.545Z,8.70
2023-03-19T02:22:12.806Z,9.50
2023-03-19T02:26:31.342Z,7.90
2023-03-19T02:35:06.233Z,8.82
2023-03-19T02:39:46.748Z,8.80
2023-03-19T02:44:04.689Z,8.43
2023-03-19T02:48:21.850Z,9.05
2023-03-19T02:52:39.094Z,8.63
2023-03-19T02:56:56.237Z,9.27
2023-03-19T03:01:13.465Z,9.02
2023-03-19T03:05:30.720Z,8.65
2023-03-19T03:09:47.911Z,8.93
2023-03-19T03:14:05.029Z,8.65
2023-03-19T03:18:22.174Z,8.75
2023-03-19T03:22:39.941Z,8.80
2023-03-19T03:26:57.266Z,8.30
2023-03-19T03:31:14.620Z,9.38
2023-03-19T03:35:32.461Z,9.15
2023-03-19T03:39:49.640Z,9.70
2023-03-19T03:44:06.970Z,8.77
2023-03-19T03:48:24.323Z,9.38
2023-03-19T03:52:42.068Z,9.20
2023-03-19T03:57:02.127Z,9.57
2023-03-19T04:01:20.648Z,9.43
2023-03-19T04:05:38.359Z,9.40
2023-03-19T04:09:57.398Z,11.27
2023-03-19T04:14:14.500Z,12.13
2023-03-19T04:18:31.833Z,9.50
2023-03-19T04:22:49.292Z,9.75
2023-03-19T04:27:07.297Z,9.60
2023-03-19T04:31:24.564Z,10.45
2023-03-19T04:35:42.285Z,9.98
2023-03-19T04:39:59.560Z,9.23
2023-03-19T04:44:17.006Z,10.45
2023-03-19T04:48:35.882Z,10.55
2023-03-19T04:52:53.008Z,10.52
2023-03-19T04:57:10.463Z,10.38
2023-03-19T05:01:27.741Z,10.93
2023-03-19T05:05:44.899Z,10.45
2023-03-19T05:10:02.702Z,10.23
2023-03-19T05:14:19.850Z,10.20
2023-03-19T05:18:40.075Z,10.32
2023-03-19T05:22:58.407Z,10.63
2023-03-19T05:27:15.826Z,10.50
2023-03-19T05:31:32.954Z,10.32
2023-03-19T05:35:50.276Z,9.98
2023-03-19T05:40:07.857Z,9.82
2023-03-19T05:44:24.957Z,9.52
2023-03-19T05:48:42.343Z,9.45
2023-03-19T05:52:59.798Z,9.27
2023-03-19T05:57:16.939Z,10.48
2023-03-19T06:01:34.084Z,10.15
2023-03-19T06:05:52.515Z,9.27
2023-03-19T06:10:10.250Z,9.68
2023-03-19T06:14:27.386Z,9.77
2023-03-19T06:18:45.622Z,10.30
2023-03-19T06:23:02.708Z,9.27
2023-03-19T06:27:19.900Z,9.25
2023-03-19T06:31:39.439Z,10.27
2023-03-19T06:35:56.978Z,10.55
2023-03-19T06:40:14.271Z,11.00
2023-03-19T06:44:31.398Z,10.90
2023-03-19T06:48:48.570Z,11.80
2023-03-19T06:53:05.701Z,11.85
2023-03-19T06:57:22.849Z,11.00
2023-03-19T07:01:41.686Z,11.73
2023-03-19T07:05:59.026Z,10.88
2023-03-19T07:10:21.608Z,10.15
2023-03-19T07:14:38.804Z,10.82
2023-03-19T07:18:56.776Z,10.23
2023-03-19T07:23:13.993Z,10.70
2023-03-19T07:27:31.318Z,11.48
2023-03-19T07:31:48.495Z,10.80
2023-03-19T07:36:06.063Z,11.80
2023-03-19T07:40:23.166Z,12.68
2023-03-19T07:44:40.568Z,12.55
2023-03-19T07:48:57.687Z,12.52
2023-03-19T07:53:14.891Z,12.27
2023-03-19T07:57:32.980Z,12.35
2023-03-19T08:01:50.169Z,12.30
2023-03-19T08:06:07.416Z,11.40
2023-03-19T08:10:24.715Z,11.60
2023-03-19T08:14:41.816Z,11.63
2023-03-19T08:18:58.933Z,11.27
2023-03-19T08:23:16.245Z,11.05
2023-03-19T08:27:35.631Z,11.02
2023-03-19T08:31:56.710Z,12.27
2023-03-19T08:36:14.403Z,10.88
2023-03-19T08:40:31.794Z,10.32
2023-03-19T08:44:49.534Z,10.27
2023-03-19T08:49:06.651Z,10.30
2023-03-19T08:53:24.360Z,10.43
2023-03-19T08:57:42.020Z,10.63
2023-03-19T09:01:59.289Z,11.52
2023-03-19T09:06:16.601Z,10.68
2023-03-19T09:10:34.357Z,10.73
2023-03-19T09:14:51.789Z,12.65
2023-03-19T09:19:09.426Z,10.90
2023-03-19T09:23:27.252Z,9.10
2023-03-19T09:27:44.565Z,9.20
2023-03-19T09:32:05.895Z,9.48
2023-03-19T09:36:23.039Z,8.65
2023-03-19T09:40:49.277Z,8.57
2023-03-19T09:45:14.105Z,8.30
2023-03-19T09:49:36.592Z,8.13
2023-03-19T09:54:01.744Z,6.47
2023-03-19T09:58:22.190Z,7.85
2023-03-19T10:02:42.663Z,7.00
2023-03-19T10:07:15.575Z,6.78
2023-03-19T10:12:03.591Z,6.60
2023-03-19T10:16:24.818Z,7.00
2023-03-19T10:20:51.866Z,6.65
2023-03-19T10:25:18.502Z,6.53
2023-03-19T10:29:35.739Z,6.70
2023-03-19T10:34:21.037Z,7.00
2023-03-19T10:38:42.898Z,6.60
2023-03-19T10:43:23.760Z,6.30
2023-03-19T10:47:43.121Z,5.00
2023-03-19T10:52:00.342Z,4.20
2023-03-19T10:56:27.044Z,3.55
2023-03-19T11:00:49.453Z,3.22
2023-03-19T11:05:12.644Z,2.70
2023-03-19T11:09:38.778Z,2.42
2023-03-19T11:13:56.416Z,2.40
2023-03-19T11:18:20.938Z,2.53
2023-03-19T11:22:40.456Z,2.55
2023-03-19T11:26:58.321Z,2.85
2023-03-19T11:31:30.119Z,3.10
2023-03-19T11:36:13.829Z,2.22
2023-03-19T11:40:55.431Z,2.75
2023-03-19T11:45:45.110Z,2.90
2023-03-19T11:50:19.326Z,3.00
2023-03-19T11:54:50.562Z,2.58
2023-03-19T11:59:29.097Z,2.70
2023-03-19T12:04:11.446Z,2.50
2023-03-19T12:08:47.354Z,2.72
2023-03-19T12:13:12.418Z,2.38
2023-03-19T12:17:59.485Z,2.45
2023-03-19T12:22:33.503Z,1.95
2023-03-19T12:27:24.633Z,2.47
2023-03-19T12:32:07.391Z,2.50
2023-03-19T12:36:32.051Z,2.33
2023-03-19T12:40:58.597Z,2.40
2023-03-19T12:45:29.362Z,2.78
2023-03-19T12:50:03.252Z,2.17
2023-03-19T12:54:27.333Z,2.35
2023-03-19T12:59:01.296Z,2.05
2023-03-19T13:03:25.406Z,2.10
2023-03-19T13:07:57.199Z,2.17
2023-03-19T13:12:26.651Z,1.90
2023-03-19T13:17:01.923Z,1.67
2023-03-19T13:21:34.885Z,1.83
2023-03-19T13:25:54.723Z,1.67
2023-03-19T13:30:12.191Z,1.77
2023-03-19T13:34:35.391Z,1.53
2023-03-19T13:38:52.638Z,1.75
2023-03-19T13:43:28.469Z,1.35
2023-03-19T13:47:49.819Z,2.10
2023-03-19T13:52:15.722Z,1.98
2023-03-19T13:56:53.226Z,1.90
2023-03-19T14:01:26.939Z,1.73
2023-03-19T14:05:47.437Z,2.00
2023-03-19T14:10:29.194Z,2.10
2023-03-19T14:14:52.117Z,2.00
2023-03-19T14:19:18.182Z,2.00
2023-03-19T14:23:43.013Z,2.22
2023-03-19T14:28:09.046Z,2.80
2023-03-19T14:32:34.297Z,2.45
2023-03-19T14:37:15.692Z,2.80
2023-03-19T14:41:39.899Z,2.70
2023-03-19T14:46:04.315Z,3.30
2023-03-19T14:50:41.541Z,4.20
2023-03-19T14:55:01.764Z,5.20
2023-03-19T14:59:19.117Z,5.40
2023-03-19T15:03:38.270Z,3.92
2023-03-19T15:07:58.714Z,3.53
2023-03-19T15:12:49.787Z,2.75
2023-03-19T15:17:24.288Z,2.50
2023-03-19T15:21:41.487Z,2.92
2023-03-19T15:26:03.876Z,3.20
2023-03-19T15:30:22.726Z,2.67
2023-03-19T15:39:10.883Z,3.42
2023-03-19T15:43:28.940Z,2.83
2023-03-19T15:47:49.728Z,3.40
2023-03-19T15:52:14.890Z,3.55
2023-03-19T15:56:32.595Z,3.00
2023-03-19T16:00:53.319Z,3.50
2023-03-19T16:05:27.549Z,3.25
2023-03-19T16:09:44.845Z,3.40
2023-03-19T16:14:10.570Z,3.40
2023-03-19T16:18:31.018Z,3.25
2023-03-19T16:22:55.702Z,3.40
2023-03-19T16:27:16.912Z,3.33
2023-03-19T16:31:43.888Z,2.70
2023-03-19T16:36:03.247Z,2.85
2023-03-19T16:40:27.557Z,5.18
2023-03-19T16:44:47.490Z,10.15
2023-03-19T16:49:04.827Z,10.57
2023-03-19T16:53:29.224Z,13.30
2023-03-19T16:57:54.389Z,7.78
2023-03-19T17:02:17.203Z,9.32
2023-03-19T17:06:34.593Z,10.75
2023-03-19T17:10:54.574Z,10.68
2023-03-19T17:19:48.088Z,9.05
2023-03-19T17:24:21.780Z,10.05
2023-03-19T17:28:39.160Z,6.38
2023-03-19T17:32:57.617Z,5.60
2023-03-19T17:37:15.206Z,6.65
2023-03-19T17:41:35.692Z,6.25
2023-03-19T17:45:55.473Z,7.70
2023-03-19T17:50:19.132Z,13.38
2023-03-19T17:54:36.305Z,13.80
2023-03-19T17:58:54.388Z,5.25
2023-03-19T18:03:15.347Z,3.93
2023-03-19T18:07:33.311Z,6.25
2023-03-19T18:11:50.868Z,6.60
2023-03-19T18:16:31.987Z,5.97
2023-03-19T18:20:49.639Z,5.95
2023-03-19T18:25:09.220Z,4.85
2023-03-19T18:29:26.688Z,5.07
2023-03-19T18:33:49.749Z,6.55
2023-03-19T18:38:33.558Z,7.20
2023-03-19T18:42:51.001Z,7.25
2023-03-19T18:47:15.839Z,7.72
2023-03-19T18:51:33.160Z,7.50
2023-03-19T18:55:51.685Z,6.18
2023-03-19T19:00:22.535Z,6.90
2023-03-19T19:04:39.917Z,13.50
2023-03-19T19:08:57.696Z,8.27
2023-03-19T19:13:20.567Z,7.65
2023-03-19T19:17:42.030Z,8.23
2023-03-19T19:21:59.176Z,7.40
2023-03-19T19:26:26.262Z,9.35
2023-03-19T19:30:44.396Z,6.90
2023-03-19T19:35:02.232Z,8.13
2023-03-19T19:39:19.666Z,8.80
2023-03-19T19:43:36.894Z,9.95
2023-03-19T19:47:55.457Z,9.07
2023-03-19T19:52:14.727Z,8.15
2023-03-19T19:56:31.984Z,9.50
2023-03-19T20:01:02.294Z,9.32
2023-03-19T20:05:26.087Z,9.32
2023-03-19T20:09:43.729Z,9.10
2023-03-19T20:14:01.181Z,9.30
2023-03-19T20:18:19.822Z,10.98
2023-03-19T20:22:36.966Z,8.30
2023-03-19T20:26:54.245Z,8.48
2023-03-19T20:31:33.012Z,8.50
2023-03-19T20:35:51.279Z,9.05
2023-03-19T20:40:09.020Z,8.43
2023-03-19T20:44:26.638Z,8.20
2023-03-19T20:48:43.825Z,8.60
2023-03-19T20:53:01.238Z,7.93
2023-03-19T20:57:25.142Z,8.45
2023-03-19T21:01:42.352Z,8.02
2023-03-19T21:06:15.142Z,9.45
2023-03-19T21:10:39.706Z,9.88
2023-03-19T21:14:58.426Z,9.48
2023-03-19T21:19:16.080Z,9.07
2023-03-19T21:23:38.571Z,8.77
2023-03-19T21:28:00.353Z,8.20
2023-03-19T21:32:19.887Z,7.50
2023-03-19T21:36:37.238Z,7.65
2023-03-19T21:40:58.003Z,8.07
2023-03-19T21:45:31.670Z,7.45
2023-03-19T21:49:49.941Z,7.13
2023-03-19T21:54:07.406Z,7.30
2023-03-19T21:58:36.300Z,7.20
2023-03-19T22:02:53.972Z,7.07
2023-03-19T22:07:11.344Z,7.85
2023-03-19T22:11:31.446Z,7.60
2023-03-19T22:15:51.448Z,7.43
2023-03-19T22:20:24.450Z,7.15
2023-03-19T22:24:41.619Z,6.68
2023-03-19T22:29:01.853Z,6.85
2023-03-19T22:33:24.468Z,7.35
2023-03-19T22:37:41.749Z,8.07
2023-03-19T22:41:59.026Z,7.72
2023-03-19T22:46:18.779Z,7.32
2023-03-19T22:50:36.035Z,7.90
2023-03-19T22:54:53.762Z,8.02
2023-03-19T22:59:10.989Z,8.35
2023-03-19T23:03:30.895Z,8.00
2023-03-19T23:07:48.047Z,7.55
2023-03-19T23:16:25.579Z,7.40
2023-03-19T23:20:43.001Z,8.02
2023-03-19T23:25:00.529Z,8.02
2023-03-19T23:29:29.432Z,8.05
2023-03-19T23:33:46.687Z,7.85
2023-03-19T23:38:04.213Z,8.77
2023-03-19T23:42:28.225Z,8.13
2023-03-19T23:46:48.425Z,9.05
2023-03-19T23:51:06.645Z,8.90
2023-03-19T23:55:24.113Z,9.02
2023-03-19T23:59:44.011Z,9.38
